Baykal'sk, Russia
Current Conditions -  °F | °C
As of 10:30 AM on Tuesday 23 Dec 2014 (Local Time) from UIII Reporting Station
Clear Clear  
Wind Chill: 10°   Ceiling: Unl
Heat Index: 10°   Visibility: 6mi
Dew Point:   Wind: 2mph
Humidity: 85%   Direction: NA
Pressure: 30.33"   Gusts: NA
Location:  51.55°N, 104.4°E
Report Text: UIII 230230Z VRB01MPS CAVOK M12/M14 Q1027 NOSIG RMK QFE725/096730850350
Loading
Personal Weather Stations






























Interactive Weather Map New forecast layout! Learn more

10-Day Weather Forecast

Advertisements
Track Severe Weather on mobile